Time;durP1;ratioP1;P1;durP2;ratioP2;P2;SDS_P1;SDS_P2;PMS_P1;PMS_P2;Temp;Humidity;BMP_temperature;BMP_pressure;BME280_temperature;BME280_humidity;BME280_pressure;Samples;Min_cycle;Max_cycle;Signal;HPM_P1;HPM_P2
2023/05/04 00:01:21;;;;;;;;;5.50;5.50;;;;;17.48;47.94;101233.78;4959487;28;45395;-70
2023/05/04 00:03:46;;;;;;;;;7.00;6.00;;;;;17.64;48.07;101269.78;4959252;28;45288;-70
2023/05/04 00:06:12;;;;;;;;;6.50;6.50;;;;;17.58;47.99;101256.59;4970658;28;45432;-70
2023/05/04 00:08:37;;;;;;;;;7.25;7.00;;;;;17.50;48.26;101243.50;4972648;28;45639;-70
2023/05/04 00:11:03;;;;;;;;;7.25;7.25;;;;;17.31;47.93;101211.25;4959203;28;45265;-70
2023/05/04 00:13:28;;;;;;;;;7.25;7.25;;;;;17.39;48.50;101225.22;4958320;28;46214;-70
2023/05/04 00:15:53;;;;;;;;;5.25;5.25;;;;;17.54;48.38;101242.41;4996189;28;46392;-70
2023/05/04 00:18:19;;;;;;;;;9.00;7.00;;;;;17.54;48.59;101236.13;5004858;27;45330;-70
2023/05/04 00:20:45;;;;;;;;;8.75;7.00;;;;;17.32;48.55;101206.72;4978494;28;45395;-71
2023/05/04 00:23:10;;;;;;;;;6.75;6.75;;;;;17.40;48.87;101229.63;4978389;28;45565;-70
2023/05/04 00:25:35;;;;;;;;;10.25;8.00;;;;;17.33;48.78;101216.56;4973045;28;45484;-71
2023/05/04 00:28:01;;;;;;;;;8.00;7.50;;;;;17.19;49.12;101187.59;4958835;28;45426;-70
2023/05/04 00:30:26;;;;;;;;;9.00;7.00;;;;;17.16;49.08;101187.78;4959276;28;45550;-70
2023/05/04 00:32:51;;;;;;;;;6.75;6.75;;;;;17.43;49.02;101231.31;4973361;28;45471;-71
2023/05/04 00:35:17;;;;;;;;;6.75;6.75;;;;;17.15;49.15;101178.81;4962791;28;45400;-71
2023/05/04 00:37:42;;;;;;;;;9.00;9.00;;;;;17.15;49.51;101180.63;4958543;28;45554;-71
2023/05/04 00:40:08;;;;;;;;;7.50;6.25;;;;;17.19;49.31;101188.50;4962542;28;45521;-71
2023/05/04 00:42:34;;;;;;;;;7.75;7.25;;;;;17.37;49.26;101220.84;4973674;28;45513;-70
2023/05/04 00:44:59;;;;;;;;;9.00;8.25;;;;;17.12;49.42;101187.06;5003656;28;45602;-70
2023/05/04 00:47:25;;;;;;;;;7.50;7.50;;;;;17.22;49.31;101200.94;4960351;28;45626;-70
2023/05/04 00:49:51;;;;;;;;;9.00;9.00;;;;;17.15;49.51;101186.91;4966923;28;45423;-70
2023/05/04 00:52:16;;;;;;;;;7.25;6.00;;;;;17.29;49.65;101207.78;4974676;28;45500;-70
2023/05/04 00:54:45;;;;;;;;;6.50;6.50;;;;;17.20;49.33;101192.06;4958945;28;46247;-70
2023/05/04 00:57:11;;;;;;;;;6.25;6.25;;;;;17.12;49.79;101181.66;4960250;28;45807;-70
2023/05/04 00:59:36;;;;;;;;;8.50;7.75;;;;;17.02;49.84;101161.53;4957204;28;45434;-70
2023/05/04 01:02:02;;;;;;;;;9.25;8.00;;;;;17.04;49.73;101167.72;4973336;28;45577;-70
2023/05/04 01:04:27;;;;;;;;;9.00;9.00;;;;;17.26;49.78;101213.31;4958668;28;46740;-70
2023/05/04 01:07:23;;;;;;;;;9.50;6.25;;;;;17.23;49.63;101203.56;4958858;28;45300;-70
2023/05/04 01:10:03;;;;;;;;;7.25;6.75;;;;;17.00;49.97;101161.59;4973175;28;45423;-70
2023/05/04 01:12:41;;;;;;;;;7.00;7.00;;;;;16.89;50.22;101155.03;4958582;28;45386;-70
2023/05/04 01:15:08;;;;;;;;;8.00;7.00;;;;;17.14;50.26;101193.25;4981597;28;46171;-70
2023/05/04 01:17:34;;;;;;;;;8.00;7.00;;;;;17.09;50.20;101180.94;4984125;27;45563;-70
2023/05/04 01:20:00;;;;;;;;;8.00;7.75;;;;;16.96;50.21;101148.38;4960598;28;45390;-70
2023/05/04 01:22:25;;;;;;;;;1.75;1.75;;;;;17.09;50.14;101172.88;4976413;28;45754;-70
2023/05/04 01:24:51;;;;;;;;;10.00;8.00;;;;;16.94;50.40;101156.56;4959687;28;46052;-70
2023/05/04 01:27:30;;;;;;;;;9.00;8.75;;;;;17.14;50.49;101197.75;4976536;28;45476;-70
2023/05/04 01:30:01;;;;;;;;;8.00;8.00;;;;;17.14;50.65;101186.97;4974836;28;45878;-70
2023/05/04 01:32:30;;;;;;;;;8.25;8.25;;;;;16.84;50.81;101144.47;4975954;28;45776;-70
2023/05/04 01:34:56;;;;;;;;;9.00;7.75;;;;;16.88;50.82;101146.09;4957718;28;46568;-70
2023/05/04 01:37:22;;;;;;;;;8.75;8.75;;;;;16.97;51.05;101161.78;4968172;28;45876;-70
2023/05/04 01:39:47;;;;;;;;;8.75;8.75;;;;;16.87;51.08;101148.84;4958500;28;45465;-70
2023/05/04 01:42:13;;;;;;;;;10.50;8.00;;;;;17.03;50.73;101185.72;4973947;28;45459;-70
2023/05/04 01:44:39;;;;;;;;;11.00;10.00;;;;;16.74;50.87;101124.31;4999630;28;45433;-70
2023/05/04 01:47:04;;;;;;;;;12.00;12.00;;;;;16.76;51.36;101134.09;4969520;28;45759;-70
2023/05/04 01:49:30;;;;;;;;;9.00;9.00;;;;;16.77;51.18;101125.06;4965280;28;45442;-70
2023/05/04 01:51:55;;;;;;;;;10.00;9.75;;;;;16.74;51.42;101129.72;4961590;28;45619;-70
2023/05/04 01:54:21;;;;;;;;;10.00;9.00;;;;;16.73;51.20;101133.38;4957983;28;45447;-70
2023/05/04 01:56:46;;;;;;;;;12.00;10.25;;;;;16.73;51.39;101136.06;4960230;28;45535;-70
2023/05/04 01:59:11;;;;;;;;;10.00;10.00;;;;;16.71;51.24;101148.75;4957925;28;45414;-71
2023/05/04 02:01:37;;;;;;;;;10.75;9.75;;;;;16.72;51.86;101154.03;4972114;28;45334;-70
2023/05/04 02:04:02;;;;;;;;;9.00;9.00;;;;;16.89;51.77;101185.59;4957981;28;45637;-70
2023/05/04 02:06:27;;;;;;;;;9.00;8.00;;;;;16.78;51.77;101164.53;4957285;28;45315;-70
2023/05/04 02:08:53;;;;;;;;;10.75;10.50;;;;;16.71;51.72;101157.72;4956526;28;45322;-70
2023/05/04 02:11:18;;;;;;;;;10.00;8.75;;;;;16.74;52.06;101160.25;4969497;28;45532;-70
2023/05/04 02:13:44;;;;;;;;;12.25;11.25;;;;;16.79;51.80;101177.06;4970290;28;45323;-70
2023/05/04 02:16:10;;;;;;;;;11.50;10.25;;;;;16.76;52.07;101166.44;4988785;28;45550;-70
2023/05/04 02:18:35;;;;;;;;;9.00;9.00;;;;;16.63;51.95;101139.22;4970348;28;45366;-70
2023/05/04 02:21:00;;;;;;;;;9.00;9.00;;;;;16.83;51.97;101167.84;4966694;28;45581;-70
2023/05/04 02:23:26;;;;;;;;;9.00;8.00;;;;;16.53;51.99;101116.41;4972379;28;45962;-70
2023/05/04 02:25:53;;;;;;;;;10.25;10.25;;;;;16.58;52.08;101133.19;4957729;28;45524;-70
2023/05/04 02:28:18;;;;;;;;;7.50;7.50;;;;;16.78;52.21;101163.66;4969668;28;45438;-70
2023/05/04 02:30:44;;;;;;;;;9.25;9.25;;;;;16.40;52.27;101096.44;4957975;28;45478;-70
2023/05/04 02:33:09;;;;;;;;;7.50;7.50;;;;;16.43;52.19;101104.34;4957559;28;45611;-70
2023/05/04 02:35:35;;;;;;;;;10.75;10.25;;;;;16.42;52.32;101108.88;4961983;28;45413;-70
2023/05/04 02:38:00;;;;;;;;;10.50;8.50;;;;;16.45;52.48;101108.69;4957598;28;45411;-70
2023/05/04 02:40:25;;;;;;;;;9.50;9.50;;;;;16.54;52.50;101126.25;4958369;28;45481;-70
2023/05/04 02:42:51;;;;;;;;;9.25;9.25;;;;;16.39;52.43;101100.06;4957243;28;45441;-70
2023/05/04 02:45:17;;;;;;;;;13.75;11.25;;;;;16.60;52.64;101133.13;5010280;28;45477;-70
2023/05/04 02:47:42;;;;;;;;;13.00;11.75;;;;;16.41;52.68;101108.97;4957365;28;45417;-70
2023/05/04 02:50:08;;;;;;;;;10.00;8.50;;;;;16.33;52.76;101101.25;4982483;28;45874;-70
2023/05/04 02:52:33;;;;;;;;;9.75;9.00;;;;;16.56;52.56;101142.34;4956763;28;47485;-70
2023/05/04 02:55:01;;;;;;;;;10.50;10.50;;;;;16.33;52.88;101111.16;4957147;28;45331;-70
2023/05/04 02:57:26;;;;;;;;;11.75;10.75;;;;;16.57;52.80;101147.66;4957586;28;45456;-70
2023/05/04 02:59:51;;;;;;;;;11.75;11.75;;;;;16.41;52.90;101128.69;4969167;28;45382;-70
2023/05/04 03:02:17;;;;;;;;;12.75;12.25;;;;;16.51;52.97;101131.78;4957291;28;45396;-70
2023/05/04 03:04:42;;;;;;;;;5.75;5.75;;;;;16.28;53.02;101101.47;4972067;28;45472;-70
2023/05/04 03:07:08;;;;;;;;;11.00;11.00;;;;;16.43;53.08;101121.38;4967578;28;45377;-70
2023/05/04 03:09:33;;;;;;;;;9.00;9.00;;;;;16.37;53.03;101107.34;4957011;28;45409;-70
2023/05/04 03:11:59;;;;;;;;;11.75;11.00;;;;;16.43;53.04;101112.44;4973786;28;45583;-70
2023/05/04 03:14:25;;;;;;;;;10.25;9.00;;;;;16.28;52.93;101087.16;4970606;28;45399;-70
2023/05/04 03:16:50;;;;;;;;;11.50;11.50;;;;;16.19;53.10;101076.81;4987980;27;45452;-70
2023/05/04 03:19:17;;;;;;;;;13.75;13.75;;;;;16.17;53.43;101085.00;4963822;28;45480;-70
2023/05/04 03:21:44;;;;;;;;;9.75;9.50;;;;;16.22;53.16;101087.44;4957477;28;46187;-70
2023/05/04 03:24:10;;;;;;;;;10.00;9.00;;;;;16.36;53.32;101102.94;4955268;28;45333;-70
2023/05/04 03:26:35;;;;;;;;;12.25;11.75;;;;;16.20;53.31;101083.97;4962392;28;45667;-70
2023/05/04 03:29:01;;;;;;;;;10.25;10.00;;;;;16.15;53.29;101075.25;4956735;28;45312;-70
2023/05/04 03:31:26;;;;;;;;;13.50;11.25;;;;;16.33;53.29;101108.47;4970639;28;48146;-70
2023/05/04 03:33:51;;;;;;;;;9.00;8.75;;;;;16.15;53.29;101083.31;4981927;28;45450;-70
2023/05/04 03:36:17;;;;;;;;;11.00;11.00;;;;;16.14;53.67;101081.56;4959037;28;45425;-70
2023/05/04 03:38:43;;;;;;;;;12.00;12.00;;;;;16.08;53.42;101072.84;4971178;28;45554;-70
2023/05/04 03:41:09;;;;;;;;;9.00;9.00;;;;;15.99;53.57;101058.97;4964263;28;45411;-70
2023/05/04 03:43:35;;;;;;;;;9.50;9.50;;;;;16.11;53.58;101082.63;4966711;28;45628;-70
2023/05/04 03:46:00;;;;;;;;;10.00;10.00;;;;;16.14;53.59;101082.47;5019944;28;45302;-70
2023/05/04 03:48:25;;;;;;;;;12.00;12.00;;;;;16.08;53.61;101078.25;4956246;28;45398;-70
2023/05/04 03:50:51;;;;;;;;;11.50;11.00;;;;;16.04;53.61;101079.34;4967907;28;45413;-70
2023/05/04 03:53:17;;;;;;;;;10.00;10.00;;;;;16.09;53.73;101084.53;4954999;28;46004;-70
2023/05/04 03:55:42;;;;;;;;;10.25;10.25;;;;;16.27;53.74;101115.91;4956093;28;45484;-70
2023/05/04 03:58:07;;;;;;;;;11.25;11.00;;;;;16.24;53.80;101104.44;4956387;28;45340;-70
2023/05/04 04:00:33;;;;;;;;;14.00;13.25;;;;;16.10;53.73;101080.84;4971608;28;45329;-70
2023/05/04 04:02:58;;;;;;;;;12.00;10.00;;;;;15.95;53.71;101052.00;4975637;28;45537;-70
2023/05/04 04:05:23;;;;;;;;;12.25;12.25;;;;;15.99;53.83;101067.06;4959620;28;46037;-70
2023/05/04 04:07:49;;;;;;;;;12.75;11.50;;;;;16.19;53.89;101101.06;4965823;28;45574;-70
2023/05/04 04:10:14;;;;;;;;;11.50;10.50;;;;;16.00;54.07;101064.28;4958894;28;46090;-70
2023/05/04 04:12:40;;;;;;;;;12.25;12.25;;;;;16.07;54.11;101087.28;4977175;28;45234;-70
2023/05/04 04:15:05;;;;;;;;;11.00;11.00;;;;;16.08;53.85;101098.91;4987577;28;46231;-70
2023/05/04 04:17:31;;;;;;;;;14.25;13.00;;;;;15.95;54.10;101062.78;4987033;27;45439;-70
2023/05/04 04:19:56;;;;;;;;;10.25;9.50;;;;;16.09;54.29;101095.28;4960813;28;45369;-70
2023/05/04 04:22:21;;;;;;;;;10.75;9.00;;;;;15.90;54.29;101063.91;4975839;28;46734;-70
2023/05/04 04:24:47;;;;;;;;;11.25;11.25;;;;;16.12;54.28;101095.13;4963542;28;45405;-70
2023/05/04 04:27:12;;;;;;;;;12.00;11.00;;;;;15.99;54.14;101089.47;4959052;28;45419;-70
2023/05/04 04:29:38;;;;;;;;;13.00;12.00;;;;;15.97;54.30;101087.81;4989599;28;46143;-70
2023/05/04 04:32:04;;;;;;;;;12.25;11.75;;;;;15.75;54.58;101056.53;4963700;28;45466;-70
2023/05/04 04:34:30;;;;;;;;;11.75;10.50;;;;;15.87;54.73;101063.16;4963978;28;45328;-70
2023/05/04 04:36:55;;;;;;;;;13.00;11.75;;;;;15.97;54.14;101083.31;4958668;28;45498;-70
2023/05/04 04:39:22;;;;;;;;;15.25;14.00;;;;;16.03;54.52;101084.81;4958722;28;46197;-70
2023/05/04 04:41:48;;;;;;;;;13.75;11.75;;;;;15.73;54.56;101042.28;4970791;28;45623;-70
2023/05/04 04:44:13;;;;;;;;;13.75;13.75;;;;;15.97;54.64;101080.63;4993251;28;45489;-70
2023/05/04 04:46:39;;;;;;;;;13.25;13.25;;;;;15.66;54.86;101043.53;5016960;27;45494;-70
2023/05/04 04:49:04;;;;;;;;;16.00;14.00;;;;;15.62;54.87;101033.84;4962367;28;46192;-70
2023/05/04 04:51:30;;;;;;;;;11.50;10.00;;;;;15.83;54.99;101073.19;4994193;28;45333;-70
2023/05/04 04:53:55;;;;;;;;;13.00;11.25;;;;;15.60;55.08;101047.38;4960062;28;45580;-70
2023/05/04 04:56:20;;;;;;;;;12.00;11.00;;;;;15.74;55.21;101054.78;4973629;28;45505;-70
2023/05/04 04:58:47;;;;;;;;;11.25;11.25;;;;;15.63;55.09;101030.22;4958401;28;46192;-70
2023/05/04 05:01:16;;;;;;;;;12.00;10.75;;;;;15.55;55.04;101015.34;4970483;28;45552;-70
2023/05/04 05:03:44;;;;;;;;;12.25;11.00;;;;;15.73;55.12;101056.59;4973248;28;45334;-70
2023/05/04 05:06:11;;;;;;;;;7.00;7.00;;;;;15.43;55.39;101018.59;4958481;28;45458;-70
2023/05/04 05:08:36;;;;;;;;;11.50;11.50;;;;;15.45;55.35;101008.66;4958216;28;45686;-70
2023/05/04 05:11:02;;;;;;;;;10.75;10.75;;;;;15.74;55.68;101060.19;4958526;28;45467;-70
2023/05/04 05:13:29;;;;;;;;;11.75;11.75;;;;;15.46;55.37;101023.84;4971712;28;45438;-70
2023/05/04 05:15:54;;;;;;;;;11.75;11.75;;;;;15.55;55.20;101035.97;4997364;28;45488;-70
2023/05/04 05:18:20;;;;;;;;;12.00;12.00;;;;;15.68;55.49;101068.53;4972966;28;46305;-70
2023/05/04 05:20:45;;;;;;;;;10.75;10.75;;;;;15.33;55.61;100999.34;4959324;28;45415;-70
2023/05/04 05:23:11;;;;;;;;;12.00;12.00;;;;;15.42;55.56;101013.28;4958307;28;45387;-70
2023/05/04 05:25:36;;;;;;;;;11.25;10.50;;;;;15.43;55.45;101007.84;4965105;28;45814;-70
2023/05/04 05:28:02;;;;;;;;;12.25;12.00;;;;;15.38;55.58;101007.19;4958063;28;46150;-70
2023/05/04 05:30:27;;;;;;;;;11.75;11.75;;;;;15.32;55.50;100994.06;4958324;28;45475;-70
2023/05/04 05:32:52;;;;;;;;;13.75;13.75;;;;;15.43;55.21;101013.22;4972244;28;45529;-70
2023/05/04 05:35:18;;;;;;;;;15.00;14.25;;;;;15.43;55.79;101021.28;4960661;28;46167;-70
2023/05/04 05:37:43;;;;;;;;;10.00;9.50;;;;;15.59;55.54;101047.47;4957875;28;45518;-70
2023/05/04 05:40:09;;;;;;;;;10.50;10.50;;;;;15.35;56.17;101012.72;4990660;28;45378;-70
2023/05/04 05:42:34;;;;;;;;;11.00;11.00;;;;;15.41;55.84;101031.25;4974910;28;45454;-70
2023/05/04 05:45:03;;;;;;;;;11.75;10.75;;;;;15.36;55.80;101030.63;5021894;28;45657;-70
2023/05/04 05:47:29;;;;;;;;;9.75;9.75;;;;;15.34;55.67;101044.13;4994852;27;48105;-70
2023/05/04 05:49:55;;;;;;;;;16.25;13.00;;;;;15.43;55.81;101052.72;4965300;28;47066;-70
2023/05/04 05:52:20;;;;;;;;;10.75;9.25;;;;;15.45;56.09;101062.47;4957383;28;45388;-74
2023/05/04 05:54:51;;;;;;;;;13.75;12.50;;;;;15.26;56.03;101029.31;4963350;28;45476;-73
2023/05/04 05:57:19;;;;;;;;;12.25;12.25;;;;;15.49;56.09;101076.63;5024837;28;46681;-73
2023/05/04 06:00:01;;;;;;;;;;;;;;;;;;;;;
2023/05/04 06:02:50;;;;;;;;;13.00;13.00;;;;;15.28;56.36;101032.78;4964152;28;67474;-74
2023/05/04 06:06:00;;;;;;;;;13.75;12.00;;;;;14.98;56.66;100988.47;4974580;28;45471;-73
2023/05/04 06:12:25;;;;;;;;;;;;;;;;;;;;;
2023/05/04 06:18:10;;;;;;;;;13.50;11.50;;;;;15.27;56.48;100996.06;4969249;28;45460;-73
2023/05/04 06:21:16;;;;;;;;;;;;;;;;;;;;;
2023/05/04 06:23:46;;;;;;;;;12.00;10.50;;;;;15.12;56.45;100955.56;4966896;28;72890;-73
2023/05/04 06:26:45;;;;;;;;;14.00;12.50;;;;;15.26;56.35;100962.06;4959783;28;45383;-73
2023/05/04 06:35:35;;;;;;;;;;;;;;;;;;;;;
2023/05/04 06:38:56;;;;;;;;;;;;;;;;;;;;;
2023/05/04 06:41:23;;;;;;;;;14.50;13.75;;;;;15.46;56.60;100999.63;4965366;28;72985;-73
2023/05/04 06:44:21;;;;;;;;;;;;;;;;;;;;;
2023/05/04 06:47:16;;;;;;;;;11.00;10.00;;;;;15.80;56.83;101042.88;4986704;28;71526;-74
2023/05/04 06:49:49;;;;;;;;;13.75;11.75;;;;;15.69;56.69;101038.00;4980226;28;45426;-76
2023/05/04 06:52:48;;;;;;;;;;;;;;;;;;;;;
2023/05/04 07:10:11;;;;;;;;;12.50;12.00;;;;;15.67;56.49;100938.50;4906878;28;46365;-73
2023/05/04 07:12:36;;;;;;;;;13.25;10.50;;;;;16.02;56.34;100996.91;4877449;28;45570;-70
2023/05/04 07:15:02;;;;;;;;;11.00;11.00;;;;;16.19;56.63;101021.16;4993992;28;45505;-70
2023/05/04 07:17:31;;;;;;;;;13.00;10.50;;;;;16.07;56.65;100986.75;5013330;28;45510;-70
2023/05/04 07:19:56;;;;;;;;;10.25;10.25;;;;;16.08;56.41;100978.59;4964050;28;47293;-70
2023/05/04 07:22:21;;;;;;;;;14.50;13.00;;;;;16.18;56.58;100983.53;4994442;27;45538;-70
2023/05/04 07:24:47;;;;;;;;;12.75;12.25;;;;;16.19;56.32;100985.25;4966186;28;45593;-71
2023/05/04 07:27:12;;;;;;;;;14.50;12.00;;;;;16.49;56.40;101039.38;4969845;28;45541;-71
2023/05/04 07:29:38;;;;;;;;;14.00;12.75;;;;;16.32;56.62;101017.81;4973884;28;46453;-71
2023/05/04 07:32:03;;;;;;;;;10.25;6.75;;;;;16.28;56.37;101003.66;4982962;28;45559;-70
2023/05/04 07:34:29;;;;;;;;;13.25;12.50;;;;;16.39;56.51;101025.50;4967697;28;45450;-70
2023/05/04 07:36:54;;;;;;;;;15.00;13.00;;;;;16.42;56.51;101021.78;4972821;28;45748;-70
2023/05/04 07:39:19;;;;;;;;;12.00;11.75;;;;;16.67;56.57;101049.19;4975343;28;45587;-70
2023/05/04 07:41:45;;;;;;;;;12.00;11.75;;;;;16.55;56.71;101016.63;4981144;28;45332;-70
2023/05/04 07:44:11;;;;;;;;;13.50;13.50;;;;;16.52;56.58;101001.47;5003013;27;45530;-70
2023/05/04 07:46:37;;;;;;;;;12.00;12.00;;;;;16.53;56.33;100997.84;4988785;28;45533;-70
2023/05/04 07:49:03;;;;;;;;;11.50;9.00;;;;;16.80;56.58;101019.72;4981003;27;45465;-70
2023/05/04 07:51:28;;;;;;;;;17.00;16.25;;;;;16.89;56.55;101033.69;4966281;28;45655;-70
2023/05/04 07:53:54;;;;;;;;;12.00;12.00;;;;;16.76;56.35;101003.81;5009545;27;45330;-69
2023/05/04 07:56:20;;;;;;;;;14.50;14.00;;;;;16.78;56.63;101001.91;4959308;28;45387;-70
2023/05/04 07:58:46;;;;;;;;;14.25;11.50;;;;;17.06;56.02;101038.16;5014477;28;46150;-70
2023/05/04 08:01:11;;;;;;;;;12.00;11.00;;;;;17.10;56.32;101037.91;4976516;28;45275;-70
2023/05/04 08:03:37;;;;;;;;;14.25;12.00;;;;;17.13;56.30;101029.66;4996861;28;45504;-70
2023/05/04 08:06:02;;;;;;;;;13.00;13.00;;;;;16.95;55.94;100987.53;4963733;28;45507;-70
2023/05/04 08:08:27;;;;;;;;;14.00;13.00;;;;;17.03;55.96;100996.06;4996930;28;45492;-70
2023/05/04 08:10:53;;;;;;;;;11.75;11.75;;;;;17.14;55.78;101003.56;4959156;28;45449;-70
2023/05/04 08:13:18;;;;;;;;;12.25;11.50;;;;;17.17;56.08;101009.69;4984371;28;45456;-70
2023/05/04 08:15:44;;;;;;;;;17.50;17.50;;;;;17.39;56.06;101028.22;4999183;28;45907;-70
2023/05/04 08:18:09;;;;;;;;;13.00;13.00;;;;;17.29;55.78;101004.53;5012466;27;46182;-70
2023/05/04 08:20:35;;;;;;;;;10.75;10.75;;;;;17.53;56.15;101040.06;4976170;28;45509;-70
2023/05/04 08:23:02;;;;;;;;;13.75;13.00;;;;;17.42;55.97;101008.28;4978201;28;45554;-70
2023/05/04 08:25:27;;;;;;;;;12.50;12.50;;;;;17.39;55.87;100992.25;4966941;28;45546;-70
2023/05/04 08:27:52;;;;;;;;;10.25;10.25;;;;;17.74;56.09;101051.44;5032724;28;47163;-70
2023/05/04 08:30:18;;;;;;;;;11.25;9.50;;;;;17.55;56.04;101008.44;4983927;27;45575;-70
2023/05/04 08:32:44;;;;;;;;;10.50;10.25;;;;;17.58;55.67;100987.53;4984813;28;45492;-70
2023/05/04 08:35:09;;;;;;;;;12.50;11.50;;;;;17.75;56.14;100996.50;4960092;28;45513;-70
2023/05/04 08:37:34;;;;;;;;;12.00;12.00;;;;;17.74;56.25;100989.34;5006425;28;46454;-70
2023/05/04 08:40:00;;;;;;;;;9.75;9.75;;;;;17.74;56.23;100967.75;4985208;27;45260;-70
2023/05/04 08:42:30;;;;;;;;;13.75;11.25;;;;;17.92;55.84;100982.03;4998385;28;45537;-70
2023/05/04 08:44:57;;;;;;;;;12.25;12.25;;;;;18.18;55.77;101002.09;4991723;27;45458;-70
2023/05/04 08:47:24;;;;;;;;;13.00;12.25;;;;;17.90;56.15;100946.16;4974546;28;45484;-70
2023/05/04 08:49:49;;;;;;;;;11.25;10.25;;;;;18.07;55.80;100978.41;4970884;28;45401;-70
2023/05/04 08:52:16;;;;;;;;;12.00;11.75;;;;;18.06;56.24;100971.28;4987034;28;45263;-70
2023/05/04 08:54:42;;;;;;;;;12.25;12.25;;;;;18.31;55.78;100999.53;4975045;27;45438;-70
2023/05/04 08:57:08;;;;;;;;;11.50;11.00;;;;;18.24;55.62;100972.00;4960510;28;45524;-70
2023/05/04 08:59:35;;;;;;;;;10.00;10.00;;;;;18.30;55.83;100968.06;4973115;28;45331;-70
2023/05/04 09:02:01;;;;;;;;;10.75;10.50;;;;;18.49;55.98;100990.28;4973879;28;45389;-71
2023/05/04 09:04:27;;;;;;;;;13.25;13.25;;;;;18.61;55.47;100985.06;5000417;28;45549;-70
2023/05/04 09:06:52;;;;;;;;;12.50;11.75;;;;;18.55;55.09;100982.75;4959255;28;47220;-70
2023/05/04 09:09:20;;;;;;;;;11.50;11.50;;;;;18.55;54.75;100975.50;5028635;27;45369;-70
2023/05/04 09:11:48;;;;;;;;;12.00;12.00;;;;;18.53;54.39;100963.94;4966678;28;45355;-70
2023/05/04 09:14:14;;;;;;;;;11.50;10.25;;;;;18.44;55.07;100950.97;4988689;28;45520;-70
2023/05/04 09:16:41;;;;;;;;;11.50;11.00;;;;;18.90;54.65;100996.81;5002344;28;45540;-71
2023/05/04 09:19:20;;;;;;;;;6.50;6.25;;;;;18.85;54.99;100980.00;4986871;28;45532;-71
2023/05/04 09:21:48;;;;;;;;;9.00;9.00;;;;;18.97;54.99;100990.03;4957901;28;45693;-70
2023/05/04 09:24:32;;;;;;;;;11.00;11.00;;;;;18.88;54.64;100964.44;5013964;28;45520;-70
2023/05/04 09:27:21;;;;;;;;;5.25;4.75;;;;;19.14;54.17;100985.38;4968276;28;45798;-70
2023/05/04 09:30:16;;;;;;;;;9.25;9.25;;;;;18.88;54.61;100936.53;4970523;28;45730;-70
2023/05/04 09:32:45;;;;;;;;;12.50;10.50;;;;;18.91;54.51;100922.81;4984792;27;45524;-71
2023/05/04 09:35:13;;;;;;;;;8.25;8.25;;;;;19.02;54.34;100928.38;4979420;28;45588;-70
2023/05/04 09:38:04;;;;;;;;;11.50;11.00;;;;;19.44;53.55;100971.66;4977828;28;48297;-70
2023/05/04 09:40:48;;;;;;;;;10.75;9.25;;;;;19.57;53.66;100985.28;4957134;28;45538;-71
2023/05/04 09:43:27;;;;;;;;;10.75;10.75;;;;;19.24;53.46;100918.84;4968114;28;45401;-70
2023/05/04 09:46:00;;;;;;;;;7.25;7.25;;;;;19.47;53.58;100954.38;4970566;28;45393;-71
2023/05/04 09:48:33;;;;;;;;;12.00;10.75;;;;;19.58;53.45;100949.97;4988308;28;46643;-70
2023/05/04 09:51:31;;;;;;;;;;;;;;;;;;;;;
2023/05/04 09:54:33;;;;;;;;;;;;;;;;;;;;;
2023/05/04 09:57:21;;;;;;;;;11.00;9.00;;;;;19.93;53.19;100964.81;4960371;28;72643;-70
2023/05/04 10:00:03;;;;;;;;;;;;;;;;;;;;;
2023/05/04 10:02:31;;;;;;;;;10.00;9.75;;;;;19.97;53.51;100959.09;4962152;28;71410;-70
2023/05/04 10:05:07;;;;;;;;;9.25;8.75;;;;;19.92;52.62;100944.16;4973284;28;45446;-72
2023/05/04 10:07:33;;;;;;;;;11.75;9.00;;;;;19.89;52.60;100934.38;4978556;28;46343;-70
2023/05/04 10:10:00;;;;;;;;;9.00;9.00;;;;;20.17;52.36;100965.84;4980210;28;45815;-70
2023/05/04 10:12:36;;;;;;;;;;;;;;;;;;;;;
2023/05/04 10:15:06;;;;;;;;;10.75;10.00;;;;;20.03;52.70;100908.16;4983201;28;67952;-70
2023/05/04 10:18:01;;;;;;;;;10.00;7.75;;;;;20.52;51.83;100969.81;4980098;28;45558;-71
2023/05/04 10:20:47;;;;;;;;;8.00;8.00;;;;;20.40;51.43;100940.81;4990574;28;45693;-70
2023/05/04 10:23:26;;;;;;;;;9.25;8.00;;;;;20.57;51.72;100959.50;5029612;28;45398;-70
2023/05/04 10:26:36;;;;;;;;;8.25;6.75;;;;;20.69;51.51;100976.78;4972732;28;45722;-70
2023/05/04 10:29:24;;;;;;;;;12.00;10.00;;;;;20.56;51.48;100938.75;4957899;28;45824;-69
2023/05/04 10:31:50;;;;;;;;;8.75;8.75;;;;;20.79;51.75;100958.00;4985975;28;45592;-69
2023/05/04 10:34:27;;;;;;;;;11.25;10.00;;;;;20.79;51.40;100939.84;4981802;28;45395;-69
2023/05/04 10:36:52;;;;;;;;;9.75;8.00;;;;;20.76;51.18;100903.97;4967301;28;45493;-69
2023/05/04 10:39:23;;;;;;;;;9.25;8.75;;;;;20.85;51.51;100895.16;4982369;28;45331;-70
2023/05/04 10:42:05;;;;;;;;;7.25;7.25;;;;;20.98;50.50;100905.94;4955925;28;45841;-69
2023/05/04 10:44:33;;;;;;;;;8.00;8.00;;;;;20.96;50.05;100889.78;4993665;28;45517;-69
2023/05/04 10:47:04;;;;;;;;;7.00;6.00;;;;;21.26;49.76;100926.50;4975364;28;45589;-69
2023/05/04 10:49:30;;;;;;;;;11.50;8.75;;;;;21.20;49.71;100905.22;5033377;28;45562;-69
2023/05/04 10:52:08;;;;;;;;;9.00;9.00;;;;;21.46;49.77;100933.16;4985028;28;45728;-69
2023/05/04 10:54:38;;;;;;;;;8.75;8.00;;;;;21.35;49.49;100917.69;4987730;28;45636;-69
2023/05/04 10:57:12;;;;;;;;;6.50;6.50;;;;;21.51;49.58;100939.13;4999475;28;45724;-69
2023/05/04 10:59:40;;;;;;;;;8.00;8.00;;;;;21.38;49.16;100911.97;4967320;28;45536;-70
2023/05/04 11:02:06;;;;;;;;;9.25;8.50;;;;;21.54;48.77;100927.19;4995747;28;45794;-69
2023/05/04 11:04:32;;;;;;;;;7.50;7.50;;;;;21.70;48.39;100951.31;4980137;28;45583;-69
2023/05/04 11:07:03;;;;;;;;;10.50;10.50;;;;;21.60;48.85;100943.00;4995657;28;45914;-69
2023/05/04 11:09:35;;;;;;;;;10.00;8.50;;;;;21.54;48.81;100928.03;4977955;28;45610;-69
2023/05/04 11:12:01;;;;;;;;;7.25;7.25;;;;;21.48;48.04;100924.91;5007602;28;48058;-69
2023/05/04 11:14:27;;;;;;;;;8.25;7.00;;;;;21.73;48.25;100973.69;4986367;28;45584;-69
2023/05/04 11:17:14;;;;;;;;;9.25;8.00;;;;;21.58;47.76;100948.53;4986108;28;45686;-70
2023/05/04 11:19:49;;;;;;;;;8.25;7.25;;;;;21.70;47.29;100968.50;4962540;28;45667;-70
2023/05/04 11:22:19;;;;;;;;;6.75;5.75;;;;;21.61;46.87;100947.44;4976896;28;46717;-69
2023/05/04 11:24:47;;;;;;;;;8.25;7.00;;;;;21.79;47.43;100973.22;4963382;28;45905;-69
2023/05/04 11:27:26;;;;;;;;;8.50;7.00;;;;;21.84;47.60;100981.88;5002485;28;45438;-69
2023/05/04 11:29:55;;;;;;;;;6.00;6.00;;;;;21.66;48.01;100964.25;4964091;28;45535;-69
2023/05/04 11:32:21;;;;;;;;;7.50;7.50;;;;;21.90;47.61;100990.56;4965976;28;45600;-69
2023/05/04 11:34:47;;;;;;;;;7.00;7.00;;;;;21.77;47.90;100958.03;4987448;28;45554;-69
2023/05/04 11:37:12;;;;;;;;;9.00;7.25;;;;;21.77;47.34;100956.19;4964887;28;45439;-69
2023/05/04 11:39:38;;;;;;;;;7.75;7.25;;;;;21.66;47.97;100939.81;5033651;28;45486;-69
2023/05/04 11:42:06;;;;;;;;;7.00;7.00;;;;;21.77;48.28;100960.75;4964880;28;45505;-69
2023/05/04 11:44:33;;;;;;;;;9.25;7.00;;;;;21.86;48.72;100978.19;5015977;28;45320;-69
2023/05/04 11:46:59;;;;;;;;;9.50;9.50;;;;;21.73;48.68;100951.09;4963123;28;45470;-69
2023/05/04 11:49:26;;;;;;;;;7.75;7.75;;;;;21.90;48.42;100974.25;4987158;28;45631;-69
2023/05/04 11:51:51;;;;;;;;;7.75;7.00;;;;;21.88;48.00;100966.22;4996034;27;45450;-71
2023/05/04 11:54:23;;;;;;;;;7.50;7.50;;;;;21.76;48.73;100940.84;4988392;28;45457;-72
2023/05/04 11:56:48;;;;;;;;;8.75;8.75;;;;;21.89;49.24;100954.38;5004982;27;45547;-71
2023/05/04 11:59:14;;;;;;;;;7.25;6.25;;;;;21.90;48.63;100949.78;4960854;28;45464;-71
2023/05/04 12:01:39;;;;;;;;;9.75;8.00;;;;;21.93;49.17;100969.44;4958676;28;45618;-69
2023/05/04 12:04:05;;;;;;;;;9.00;8.00;;;;;21.91;48.74;100959.69;4963270;28;45428;-69
2023/05/04 12:06:32;;;;;;;;;9.75;9.00;;;;;21.81;49.13;100959.53;4963780;28;45738;-69
2023/05/04 12:09:01;;;;;;;;;11.00;9.75;;;;;21.93;48.96;100955.00;4964188;28;45544;-69